sensor_id;sensor_type;location;lat;lon;timestamp;temperature;humidity
57242;DHT22;43095;53.302;5.786;2024-03-29T03:35:24;7.80;82.30
57242;DHT22;43095;53.302;5.786;2024-03-29T03:37:50;7.90;82.10
57242;DHT22;43095;53.302;5.786;2024-03-29T03:40:16;8.00;82.10
57242;DHT22;43095;53.302;5.786;2024-03-29T03:42:42;8.00;82.00
57242;DHT22;43095;53.302;5.786;2024-03-29T03:45:08;8.00;82.00
57242;DHT22;43095;53.302;5.786;2024-03-29T03:47:34;8.00;82.00
57242;DHT22;43095;53.302;5.786;2024-03-29T03:50:01;8.00;82.00
57242;DHT22;43095;53.302;5.786;2024-03-29T03:52:27;8.00;82.10
57242;DHT22;43095;53.302;5.786;2024-03-29T03:54:53;8.00;82.10
57242;DHT22;43095;53.302;5.786;2024-03-29T03:57:19;8.00;82.30
57242;DHT22;43095;53.302;5.786;2024-03-29T03:59:45;8.00;82.20
57242;DHT22;43095;53.302;5.786;2024-03-29T04:02:11;8.00;82.10
57242;DHT22;43095;53.302;5.786;2024-03-29T04:04:37;8.00;82.00
57242;DHT22;43095;53.302;5.786;2024-03-29T04:07:04;8.00;81.90
57242;DHT22;43095;53.302;5.786;2024-03-29T04:09:30;8.00;81.90
57242;DHT22;43095;53.302;5.786;2024-03-29T04:11:56;8.00;81.90
57242;DHT22;43095;53.302;5.786;2024-03-29T04:14:22;8.00;81.70
57242;DHT22;43095;53.302;5.786;2024-03-29T04:16:48;8.00;81.80
57242;DHT22;43095;53.302;5.786;2024-03-29T04:19:14;8.00;81.70
57242;DHT22;43095;53.302;5.786;2024-03-29T04:21:40;8.00;81.70
57242;DHT22;43095;53.302;5.786;2024-03-29T04:24:06;8.00;81.60
57242;DHT22;43095;53.302;5.786;2024-03-29T04:26:36;8.00;81.60
57242;DHT22;43095;53.302;5.786;2024-03-29T04:29:03;8.00;81.70
57242;DHT22;43095;53.302;5.786;2024-03-29T04:31:29;8.00;81.70
57242;DHT22;43095;53.302;5.786;2024-03-29T04:33:55;8.00;81.70
57242;DHT22;43095;53.302;5.786;2024-03-29T04:36:21;8.00;81.70
57242;DHT22;43095;53.302;5.786;2024-03-29T04:38:48;8.00;81.70
57242;DHT22;43095;53.302;5.786;2024-03-29T04:41:14;8.00;81.60
57242;DHT22;43095;53.302;5.786;2024-03-29T04:43:40;8.00;81.70
57242;DHT22;43095;53.302;5.786;2024-03-29T04:46:12;8.00;81.70
57242;DHT22;43095;53.302;5.786;2024-03-29T04:48:41;8.00;81.60
57242;DHT22;43095;53.302;5.786;2024-03-29T04:51:09;8.00;81.60
57242;DHT22;43095;53.302;5.786;2024-03-29T04:53:39;8.00;81.40
57242;DHT22;43095;53.302;5.786;2024-03-29T04:56:05;8.00;81.10
57242;DHT22;43095;53.302;5.786;2024-03-29T04:58:32;8.00;81.10
57242;DHT22;43095;53.302;5.786;2024-03-29T05:00:59;8.00;80.90
57242;DHT22;43095;53.302;5.786;2024-03-29T05:03:25;8.00;80.80
57242;DHT22;43095;53.302;5.786;2024-03-29T05:05:52;8.00;80.90
57242;DHT22;43095;53.302;5.786;2024-03-29T05:08:19;8.00;80.90
57242;DHT22;43095;53.302;5.786;2024-03-29T05:10:51;8.10;80.80
57242;DHT22;43095;53.302;5.786;2024-03-29T05:13:18;8.10;80.90
57242;DHT22;43095;53.302;5.786;2024-03-29T05:15:47;8.10;80.90
57242;DHT22;43095;53.302;5.786;2024-03-29T05:18:13;8.10;80.90
57242;DHT22;43095;53.302;5.786;2024-03-29T05:20:40;8.10;80.90
57242;DHT22;43095;53.302;5.786;2024-03-29T05:23:07;8.10;81.10
57242;DHT22;43095;53.302;5.786;2024-03-29T05:25:33;8.00;81.10
57242;DHT22;43095;53.302;5.786;2024-03-29T05:28:00;8.00;81.10
57242;DHT22;43095;53.302;5.786;2024-03-29T05:30:26;8.00;80.90
57242;DHT22;43095;53.302;5.786;2024-03-29T05:32:54;8.00;80.70
57242;DHT22;43095;53.302;5.786;2024-03-29T05:35:20;8.00;80.80
57242;DHT22;43095;53.302;5.786;2024-03-29T05:37:46;8.00;80.70
57242;DHT22;43095;53.302;5.786;2024-03-29T05:40:16;8.00;80.70
57242;DHT22;43095;53.302;5.786;2024-03-29T05:42:42;8.00;80.70
57242;DHT22;43095;53.302;5.786;2024-03-29T05:45:26;7.90;80.70
57242;DHT22;43095;53.302;5.786;2024-03-29T05:47:55;8.00;80.90
57242;DHT22;43095;53.302;5.786;2024-03-29T05:50:23;7.90;81.10
57242;DHT22;43095;53.302;5.786;2024-03-29T05:52:50;7.80;81.10
57242;DHT22;43095;53.302;5.786;2024-03-29T05:55:18;7.80;81.20
57242;DHT22;43095;53.302;5.786;2024-03-29T05:57:44;7.80;81.40
57242;DHT22;43095;53.302;5.786;2024-03-29T06:00:12;7.80;81.50
57242;DHT22;43095;53.302;5.786;2024-03-29T06:02:42;7.80;81.60
57242;DHT22;43095;53.302;5.786;2024-03-29T06:05:11;7.80;81.80
57242;DHT22;43095;53.302;5.786;2024-03-29T06:07:37;7.80;81.90
57242;DHT22;43095;53.302;5.786;2024-03-29T06:10:04;7.80;82.10
57242;DHT22;43095;53.302;5.786;2024-03-29T06:12:34;7.80;82.30
57242;DHT22;43095;53.302;5.786;2024-03-29T06:15:06;7.80;82.50
57242;DHT22;43095;53.302;5.786;2024-03-29T06:17:51;7.80;82.60
57242;DHT22;43095;53.302;5.786;2024-03-29T06:20:18;7.80;82.80
57242;DHT22;43095;53.302;5.786;2024-03-29T06:22:44;7.80;82.90
57242;DHT22;43095;53.302;5.786;2024-03-29T06:25:10;7.80;83.10
57242;DHT22;43095;53.302;5.786;2024-03-29T06:27:36;7.80;83.20
57242;DHT22;43095;53.302;5.786;2024-03-29T06:30:06;7.80;83.30
57242;DHT22;43095;53.302;5.786;2024-03-29T06:32:34;7.80;83.40
57242;DHT22;43095;53.302;5.786;2024-03-29T06:35:00;7.80;83.40
57242;DHT22;43095;53.302;5.786;2024-03-29T06:37:26;7.80;83.60
57242;DHT22;43095;53.302;5.786;2024-03-29T06:39:54;7.90;83.70
57242;DHT22;43095;53.302;5.786;2024-03-29T06:42:20;7.90;83.50
57242;DHT22;43095;53.302;5.786;2024-03-29T06:44:46;8.00;83.50
57242;DHT22;43095;53.302;5.786;2024-03-29T06:47:12;8.00;83.50
57242;DHT22;43095;53.302;5.786;2024-03-29T06:49:38;8.00;83.50
57242;DHT22;43095;53.302;5.786;2024-03-29T06:52:05;8.00;83.50
57242;DHT22;43095;53.302;5.786;2024-03-29T06:54:31;8.00;83.50
57242;DHT22;43095;53.302;5.786;2024-03-29T06:56:59;8.00;83.60
57242;DHT22;43095;53.302;5.786;2024-03-29T06:59:26;8.10;83.60
57242;DHT22;43095;53.302;5.786;2024-03-29T07:01:52;8.10;83.70
57242;DHT22;43095;53.302;5.786;2024-03-29T07:04:23;8.10;83.70
57242;DHT22;43095;53.302;5.786;2024-03-29T07:06:54;8.20;83.70
57242;DHT22;43095;53.302;5.786;2024-03-29T07:09:21;8.20;83.80
57242;DHT22;43095;53.302;5.786;2024-03-29T07:11:49;8.30;83.80
57242;DHT22;43095;53.302;5.786;2024-03-29T07:14:17;8.30;83.70
57242;DHT22;43095;53.302;5.786;2024-03-29T07:16:45;8.30;83.90
57242;DHT22;43095;53.302;5.786;2024-03-29T07:19:13;8.40;84.00
57242;DHT22;43095;53.302;5.786;2024-03-29T07:21:43;8.40;84.00
57242;DHT22;43095;53.302;5.786;2024-03-29T07:24:09;8.40;84.00
57242;DHT22;43095;53.302;5.786;2024-03-29T07:26:36;8.40;84.10
57242;DHT22;43095;53.302;5.786;2024-03-29T07:29:02;8.50;84.20
57242;DHT22;43095;53.302;5.786;2024-03-29T07:31:31;8.50;84.20
57242;DHT22;43095;53.302;5.786;2024-03-29T08:19:34;9.50;83.70
57242;DHT22;43095;53.302;5.786;2024-03-29T08:22:02;9.50;83.50
57242;DHT22;43095;53.302;5.786;2024-03-29T08:24:29;9.40;83.50
57242;DHT22;43095;53.302;5.786;2024-03-29T08:26:56;9.40;83.60
57242;DHT22;43095;53.302;5.786;2024-03-29T08:29:25;9.40;83.40
57242;DHT22;43095;53.302;5.786;2024-03-29T08:31:52;9.40;83.60
57242;DHT22;43095;53.302;5.786;2024-03-29T08:34:18;9.40;83.90
57242;DHT22;43095;53.302;5.786;2024-03-29T08:36:45;9.50;83.90
57242;DHT22;43095;53.302;5.786;2024-03-29T08:39:14;9.60;83.90
57242;DHT22;43095;53.302;5.786;2024-03-29T08:41:42;9.70;83.60
57242;DHT22;43095;53.302;5.786;2024-03-29T08:44:11;9.80;83.30
57242;DHT22;43095;53.302;5.786;2024-03-29T08:46:38;10.00;83.20
57242;DHT22;43095;53.302;5.786;2024-03-29T08:49:05;10.00;82.80
57242;DHT22;43095;53.302;5.786;2024-03-29T08:51:32;10.00;83.00
57242;DHT22;43095;53.302;5.786;2024-03-29T08:54:00;10.10;82.90
57242;DHT22;43095;53.302;5.786;2024-03-29T08:56:34;10.10;82.30
57242;DHT22;43095;53.302;5.786;2024-03-29T08:59:03;10.10;82.30
57242;DHT22;43095;53.302;5.786;2024-03-29T09:01:41;10.10;82.30
57242;DHT22;43095;53.302;5.786;2024-03-29T09:04:11;10.10;82.10
57242;DHT22;43095;53.302;5.786;2024-03-29T09:06:38;10.10;82.10
57242;DHT22;43095;53.302;5.786;2024-03-29T09:09:05;10.10;82.20
57242;DHT22;43095;53.302;5.786;2024-03-29T09:11:32;10.10;82.30
57242;DHT22;43095;53.302;5.786;2024-03-29T09:13:59;10.20;82.20
57242;DHT22;43095;53.302;5.786;2024-03-29T09:16:27;10.30;82.20
57242;DHT22;43095;53.302;5.786;2024-03-29T09:18:58;10.30;82.00
57242;DHT22;43095;53.302;5.786;2024-03-29T09:21:25;10.30;82.20
57242;DHT22;43095;53.302;5.786;2024-03-29T09:23:51;10.50;82.30
57242;DHT22;43095;53.302;5.786;2024-03-29T09:26:21;10.60;82.30
57242;DHT22;43095;53.302;5.786;2024-03-29T09:28:48;10.70;82.50
57242;DHT22;43095;53.302;5.786;2024-03-29T09:31:17;10.80;81.90
57242;DHT22;43095;53.302;5.786;2024-03-29T09:33:43;10.90;81.90
57242;DHT22;43095;53.302;5.786;2024-03-29T09:36:12;11.00;81.90
57242;DHT22;43095;53.302;5.786;2024-03-29T09:38:39;11.10;81.70
57242;DHT22;43095;53.302;5.786;2024-03-29T09:41:16;11.10;81.20
57242;DHT22;43095;53.302;5.786;2024-03-29T09:43:47;11.30;80.90
57242;DHT22;43095;53.302;5.786;2024-03-29T09:46:15;11.40;80.40
57242;DHT22;43095;53.302;5.786;2024-03-29T09:48:43;11.50;80.40
57242;DHT22;43095;53.302;5.786;2024-03-29T09:51:15;11.60;79.70
57242;DHT22;43095;53.302;5.786;2024-03-29T09:53:43;11.60;79.50
57242;DHT22;43095;53.302;5.786;2024-03-29T09:56:10;11.70;79.70
57242;DHT22;43095;53.302;5.786;2024-03-29T09:58:38;11.70;79.40
57242;DHT22;43095;53.302;5.786;2024-03-29T10:01:05;11.60;78.80
57242;DHT22;43095;53.302;5.786;2024-03-29T10:03:39;11.50;78.90
57242;DHT22;43095;53.302;5.786;2024-03-29T10:06:10;11.50;78.80
57242;DHT22;43095;53.302;5.786;2024-03-29T10:08:40;11.50;79.30
57242;DHT22;43095;53.302;5.786;2024-03-29T10:11:07;11.50;79.10
57242;DHT22;43095;53.302;5.786;2024-03-29T10:13:33;11.40;78.50
57242;DHT22;43095;53.302;5.786;2024-03-29T10:16:01;11.30;78.40
57242;DHT22;43095;53.302;5.786;2024-03-29T10:18:29;11.30;78.30
57242;DHT22;43095;53.302;5.786;2024-03-29T10:21:07;11.30;78.80
57242;DHT22;43095;53.302;5.786;2024-03-29T10:23:35;11.30;78.70
57242;DHT22;43095;53.302;5.786;2024-03-29T10:26:04;11.20;79.00
57242;DHT22;43095;53.302;5.786;2024-03-29T10:28:33;11.20;78.80
57242;DHT22;43095;53.302;5.786;2024-03-29T10:31:07;11.30;79.20
57242;DHT22;43095;53.302;5.786;2024-03-29T10:33:34;11.30;79.40
57242;DHT22;43095;53.302;5.786;2024-03-29T10:36:04;11.30;79.70
57242;DHT22;43095;53.302;5.786;2024-03-29T10:38:37;11.30;79.40
57242;DHT22;43095;53.302;5.786;2024-03-29T10:41:04;11.40;79.30
57242;DHT22;43095;53.302;5.786;2024-03-29T10:43:38;11.40;79.70
57242;DHT22;43095;53.302;5.786;2024-03-29T10:46:05;11.40;80.00
57242;DHT22;43095;53.302;5.786;2024-03-29T10:48:31;11.50;80.00
57242;DHT22;43095;53.302;5.786;2024-03-29T10:50:59;11.40;79.40
57242;DHT22;43095;53.302;5.786;2024-03-29T10:53:27;11.40;79.50
57242;DHT22;43095;53.302;5.786;2024-03-29T10:55:59;11.50;79.10
57242;DHT22;43095;53.302;5.786;2024-03-29T10:58:30;11.60;78.70
57242;DHT22;43095;53.302;5.786;2024-03-29T11:01:03;11.70;78.30
57242;DHT22;43095;53.302;5.786;2024-03-29T11:06:05;11.70;77.20
57242;DHT22;43095;53.302;5.786;2024-03-29T11:08:34;11.70;77.40
57242;DHT22;43095;53.302;5.786;2024-03-29T11:11:04;11.90;77.70
57242;DHT22;43095;53.302;5.786;2024-03-29T11:13:38;12.00;77.80
57242;DHT22;43095;53.302;5.786;2024-03-29T11:16:08;12.10;77.40
57242;DHT22;43095;53.302;5.786;2024-03-29T11:18:38;12.30;77.30
57242;DHT22;43095;53.302;5.786;2024-03-29T11:21:06;12.50;75.60
57242;DHT22;43095;53.302;5.786;2024-03-29T11:23:35;12.60;74.90
57242;DHT22;43095;53.302;5.786;2024-03-29T11:26:03;12.60;75.10
57242;DHT22;43095;53.302;5.786;2024-03-29T11:28:35;12.60;75.00
57242;DHT22;43095;53.302;5.786;2024-03-29T11:31:03;12.50;74.60
57242;DHT22;43095;53.302;5.786;2024-03-29T11:33:33;12.50;74.90
57242;DHT22;43095;53.302;5.786;2024-03-29T11:36:24;12.50;74.70
57242;DHT22;43095;53.302;5.786;2024-03-29T11:38:57;12.50;74.90
57242;DHT22;43095;53.302;5.786;2024-03-29T11:41:24;12.50;75.10
57242;DHT22;43095;53.302;5.786;2024-03-29T11:43:56;12.30;75.10
57242;DHT22;43095;53.302;5.786;2024-03-29T11:46:25;12.20;75.20
57242;DHT22;43095;53.302;5.786;2024-03-29T11:48:53;12.20;75.90
57242;DHT22;43095;53.302;5.786;2024-03-29T11:51:22;12.20;75.90
57242;DHT22;43095;53.302;5.786;2024-03-29T11:53:50;12.20;75.70
57242;DHT22;43095;53.302;5.786;2024-03-29T11:56:18;12.20;75.70
57242;DHT22;43095;53.302;5.786;2024-03-29T11:58:46;12.40;75.50
57242;DHT22;43095;53.302;5.786;2024-03-29T12:01:14;12.40;74.40
57242;DHT22;43095;53.302;5.786;2024-03-29T12:03:42;12.30;74.60
57242;DHT22;43095;53.302;5.786;2024-03-29T12:06:09;12.30;75.40
57242;DHT22;43095;53.302;5.786;2024-03-29T12:08:39;12.50;75.80
57242;DHT22;43095;53.302;5.786;2024-03-29T12:11:08;12.60;75.70
57242;DHT22;43095;53.302;5.786;2024-03-29T12:13:39;12.80;74.90
57242;DHT22;43095;53.302;5.786;2024-03-29T12:16:07;12.90;74.10
57242;DHT22;43095;53.302;5.786;2024-03-29T12:18:34;12.90;73.10
57242;DHT22;43095;53.302;5.786;2024-03-29T12:21:02;12.90;72.70
57242;DHT22;43095;53.302;5.786;2024-03-29T12:23:29;12.90;73.00
57242;DHT22;43095;53.302;5.786;2024-03-29T12:25:57;12.90;72.20
57242;DHT22;43095;53.302;5.786;2024-03-29T12:28:25;12.80;71.80
57242;DHT22;43095;53.302;5.786;2024-03-29T12:30:52;12.70;71.90
57242;DHT22;43095;53.302;5.786;2024-03-29T12:33:22;12.70;72.60
57242;DHT22;43095;53.302;5.786;2024-03-29T12:35:52;12.70;72.80
57242;DHT22;43095;53.302;5.786;2024-03-29T12:38:21;12.70;73.00
57242;DHT22;43095;53.302;5.786;2024-03-29T12:40:50;12.50;73.00
57242;DHT22;43095;53.302;5.786;2024-03-29T12:43:21;12.60;73.50
57242;DHT22;43095;53.302;5.786;2024-03-29T12:45:49;12.60;73.60
57242;DHT22;43095;53.302;5.786;2024-03-29T12:48:17;12.70;73.70
57242;DHT22;43095;53.302;5.786;2024-03-29T12:50:46;12.70;74.00
57242;DHT22;43095;53.302;5.786;2024-03-29T12:53:15;12.80;73.80
57242;DHT22;43095;53.302;5.786;2024-03-29T12:55:46;12.90;73.80
57242;DHT22;43095;53.302;5.786;2024-03-29T12:58:17;13.00;73.50
57242;DHT22;43095;53.302;5.786;2024-03-29T13:00:48;13.10;73.70
57242;DHT22;43095;53.302;5.786;2024-03-29T13:03:14;13.30;73.10
57242;DHT22;43095;53.302;5.786;2024-03-29T13:05:42;13.30;73.30
57242;DHT22;43095;53.302;5.786;2024-03-29T13:08:09;13.50;73.40
57242;DHT22;43095;53.302;5.786;2024-03-29T13:10:43;13.70;72.90
57242;DHT22;43095;53.302;5.786;2024-03-29T13:13:10;13.90;72.80
57242;DHT22;43095;53.302;5.786;2024-03-29T13:15:38;14.10;72.20
57242;DHT22;43095;53.302;5.786;2024-03-29T13:18:06;14.30;71.90
57242;DHT22;43095;53.302;5.786;2024-03-29T13:20:35;14.50;71.30
57242;DHT22;43095;53.302;5.786;2024-03-29T13:23:08;14.70;70.90
57242;DHT22;43095;53.302;5.786;2024-03-29T13:25:34;14.80;70.30
57242;DHT22;43095;53.302;5.786;2024-03-29T13:28:00;15.00;69.80
57242;DHT22;43095;53.302;5.786;2024-03-29T13:30:27;15.10;69.00
57242;DHT22;43095;53.302;5.786;2024-03-29T13:32:54;15.10;68.20
57242;DHT22;43095;53.302;5.786;2024-03-29T13:35:20;15.20;67.60
57242;DHT22;43095;53.302;5.786;2024-03-29T13:37:51;15.20;67.50
57242;DHT22;43095;53.302;5.786;2024-03-29T13:40:22;15.00;66.70
57242;DHT22;43095;53.302;5.786;2024-03-29T13:42:50;14.80;66.80
57242;DHT22;43095;53.302;5.786;2024-03-29T13:45:16;14.70;66.60
57242;DHT22;43095;53.302;5.786;2024-03-29T13:47:44;14.60;67.00
57242;DHT22;43095;53.302;5.786;2024-03-29T13:50:11;14.60;67.10
57242;DHT22;43095;53.302;5.786;2024-03-29T13:52:41;14.50;67.30
57242;DHT22;43095;53.302;5.786;2024-03-29T13:55:08;14.50;67.50
57242;DHT22;43095;53.302;5.786;2024-03-29T13:57:35;14.70;67.30
57242;DHT22;43095;53.302;5.786;2024-03-29T14:00:02;15.00;66.90
57242;DHT22;43095;53.302;5.786;2024-03-29T14:02:32;15.20;66.20
57242;DHT22;43095;53.302;5.786;2024-03-29T14:04:58;15.30;65.70
57242;DHT22;43095;53.302;5.786;2024-03-29T14:07:24;15.20;65.50
57242;DHT22;43095;53.302;5.786;2024-03-29T14:09:51;15.30;65.70
57242;DHT22;43095;53.302;5.786;2024-03-29T14:12:18;15.50;65.30
57242;DHT22;43095;53.302;5.786;2024-03-29T14:14:51;15.50;64.70
57242;DHT22;43095;53.302;5.786;2024-03-29T14:17:19;15.60;64.20
57242;DHT22;43095;53.302;5.786;2024-03-29T14:19:46;15.60;64.30
57242;DHT22;43095;53.302;5.786;2024-03-29T14:22:13;15.80;63.50
57242;DHT22;43095;53.302;5.786;2024-03-29T14:24:41;15.80;62.60
57242;DHT22;43095;53.302;5.786;2024-03-29T14:27:07;15.60;62.60
57242;DHT22;43095;53.302;5.786;2024-03-29T14:29:34;15.40;63.00
57242;DHT22;43095;53.302;5.786;2024-03-29T14:32:01;15.20;63.20
57242;DHT22;43095;53.302;5.786;2024-03-29T14:34:28;15.00;63.90
57242;DHT22;43095;53.302;5.786;2024-03-29T14:36:58;14.90;63.80
57242;DHT22;43095;53.302;5.786;2024-03-29T14:39:25;14.70;64.00
57242;DHT22;43095;53.302;5.786;2024-03-29T14:41:51;14.60;63.90
57242;DHT22;43095;53.302;5.786;2024-03-29T14:44:18;14.60;64.00
57242;DHT22;43095;53.302;5.786;2024-03-29T14:46:49;14.50;64.10
57242;DHT22;43095;53.302;5.786;2024-03-29T14:49:16;14.50;64.60
57242;DHT22;43095;53.302;5.786;2024-03-29T14:51:43;14.60;64.60
57242;DHT22;43095;53.302;5.786;2024-03-29T14:54:10;14.80;64.30
57242;DHT22;43095;53.302;5.786;2024-03-29T14:56:36;15.00;63.40
57242;DHT22;43095;53.302;5.786;2024-03-29T14:59:04;15.20;62.60
57242;DHT22;43095;53.302;5.786;2024-03-29T15:01:32;15.40;62.10
57242;DHT22;43095;53.302;5.786;2024-03-29T15:03:59;15.60;61.30
57242;DHT22;43095;53.302;5.786;2024-03-29T15:06:25;15.50;60.70
57242;DHT22;43095;53.302;5.786;2024-03-29T15:08:53;15.40;61.10
57242;DHT22;43095;53.302;5.786;2024-03-29T15:11:20;15.20;60.90
57242;DHT22;43095;53.302;5.786;2024-03-29T15:13:48;14.90;60.70
57242;DHT22;43095;53.302;5.786;2024-03-29T15:16:16;14.60;61.30
57242;DHT22;43095;53.302;5.786;2024-03-29T15:18:43;14.30;61.80
57242;DHT22;43095;53.302;5.786;2024-03-29T15:21:10;14.20;62.80
57242;DHT22;43095;53.302;5.786;2024-03-29T15:23:37;14.40;62.60
57242;DHT22;43095;53.302;5.786;2024-03-29T15:26:03;14.70;62.50
57242;DHT22;43095;53.302;5.786;2024-03-29T15:28:30;14.90;62.30
57242;DHT22;43095;53.302;5.786;2024-03-29T15:31:19;15.20;62.00
57242;DHT22;43095;53.302;5.786;2024-03-29T15:33:52;15.40;61.80
57242;DHT22;43095;53.302;5.786;2024-03-29T15:36:19;15.60;62.10
57242;DHT22;43095;53.302;5.786;2024-03-29T15:38:47;15.80;61.50
57242;DHT22;43095;53.302;5.786;2024-03-29T15:41:20;16.00;60.60
57242;DHT22;43095;53.302;5.786;2024-03-29T15:43:46;16.20;60.50
57242;DHT22;43095;53.302;5.786;2024-03-29T15:46:13;16.40;60.00
57242;DHT22;43095;53.302;5.786;2024-03-29T15:48:39;16.40;59.20
57242;DHT22;43095;53.302;5.786;2024-03-29T15:51:06;16.40;58.50
57242;DHT22;43095;53.302;5.786;2024-03-29T15:53:37;16.40;58.30
57242;DHT22;43095;53.302;5.786;2024-03-29T15:56:04;16.20;58.20
57242;DHT22;43095;53.302;5.786;2024-03-29T15:58:31;16.20;58.30
57242;DHT22;43095;53.302;5.786;2024-03-29T16:00:58;16.20;58.50
57242;DHT22;43095;53.302;5.786;2024-03-29T16:03:24;16.20;58.20
57242;DHT22;43095;53.302;5.786;2024-03-29T16:05:51;16.10;59.00
57242;DHT22;43095;53.302;5.786;2024-03-29T16:08:18;16.20;59.10
57242;DHT22;43095;53.302;5.786;2024-03-29T16:13:25;16.10;59.00
57242;DHT22;43095;53.302;5.786;2024-03-29T16:15:54;15.80;58.70
57242;DHT22;43095;53.302;5.786;2024-03-29T16:18:23;15.30;59.40
57242;DHT22;43095;53.302;5.786;2024-03-29T16:20:50;14.80;60.50
57242;DHT22;43095;53.302;5.786;2024-03-29T16:23:16;14.40;61.70
57242;DHT22;43095;53.302;5.786;2024-03-29T16:25:42;14.10;62.70
57242;DHT22;43095;53.302;5.786;2024-03-29T16:28:12;13.90;63.80
57242;DHT22;43095;53.302;5.786;2024-03-29T16:30:41;13.70;64.80
57242;DHT22;43095;53.302;5.786;2024-03-29T16:33:08;13.50;65.10
57242;DHT22;43095;53.302;5.786;2024-03-29T16:35:34;13.50;65.70
57242;DHT22;43095;53.302;5.786;2024-03-29T16:38:01;13.30;66.50
57242;DHT22;43095;53.302;5.786;2024-03-29T16:40:28;13.30;66.90
57242;DHT22;43095;53.302;5.786;2024-03-29T16:42:56;13.40;66.70
57242;DHT22;43095;53.302;5.786;2024-03-29T16:45:23;13.40;66.60
57242;DHT22;43095;53.302;5.786;2024-03-29T16:47:49;13.30;66.70
57242;DHT22;43095;53.302;5.786;2024-03-29T16:50:16;13.20;67.00
57242;DHT22;43095;53.302;5.786;2024-03-29T16:52:43;13.20;68.20
57242;DHT22;43095;53.302;5.786;2024-03-29T16:55:09;13.30;68.50
57242;DHT22;43095;53.302;5.786;2024-03-29T16:57:36;13.60;68.30
57242;DHT22;43095;53.302;5.786;2024-03-29T17:00:05;13.80;68.00
57242;DHT22;43095;53.302;5.786;2024-03-29T17:02:38;14.00;68.10
57242;DHT22;43095;53.302;5.786;2024-03-29T17:05:06;14.10;67.70
57242;DHT22;43095;53.302;5.786;2024-03-29T17:07:33;14.00;67.30
57242;DHT22;43095;53.302;5.786;2024-03-29T17:10:00;13.90;67.60
57242;DHT22;43095;53.302;5.786;2024-03-29T17:12:27;13.70;67.90
57242;DHT22;43095;53.302;5.786;2024-03-29T17:14:54;13.50;68.30
57242;DHT22;43095;53.302;5.786;2024-03-29T17:17:21;13.40;68.70
57242;DHT22;43095;53.302;5.786;2024-03-29T17:19:49;13.20;69.10
57242;DHT22;43095;53.302;5.786;2024-03-29T17:22:15;13.10;69.40
57242;DHT22;43095;53.302;5.786;2024-03-29T17:24:41;12.90;69.80
57242;DHT22;43095;53.302;5.786;2024-03-29T17:27:08;12.80;70.20
57242;DHT22;43095;53.302;5.786;2024-03-29T17:29:34;12.70;70.50
57242;DHT22;43095;53.302;5.786;2024-03-29T17:32:02;12.50;70.90
57242;DHT22;43095;53.302;5.786;2024-03-29T17:34:29;12.50;71.20
57242;DHT22;43095;53.302;5.786;2024-03-29T17:36:55;12.50;71.60
57242;DHT22;43095;53.302;5.786;2024-03-29T17:39:21;12.30;71.70
57242;DHT22;43095;53.302;5.786;2024-03-29T17:41:48;12.20;72.20
57242;DHT22;43095;53.302;5.786;2024-03-29T17:44:14;12.10;72.50
57242;DHT22;43095;53.302;5.786;2024-03-29T17:46:44;12.00;72.80
57242;DHT22;43095;53.302;5.786;2024-03-29T17:49:12;11.90;73.10
57242;DHT22;43095;53.302;5.786;2024-03-29T17:51:39;11.80;73.60
57242;DHT22;43095;53.302;5.786;2024-03-29T17:54:05;11.70;73.80
57242;DHT22;43095;53.302;5.786;2024-03-29T17:56:31;11.60;74.10
57242;DHT22;43095;53.302;5.786;2024-03-29T17:58:58;11.50;74.30
57242;DHT22;43095;53.302;5.786;2024-03-29T18:01:25;11.50;74.50
57242;DHT22;43095;53.302;5.786;2024-03-29T18:03:51;11.40;74.70
57242;DHT22;43095;53.302;5.786;2024-03-29T18:06:19;11.30;74.80
57242;DHT22;43095;53.302;5.786;2024-03-29T18:08:45;11.20;75.00
57242;DHT22;43095;53.302;5.786;2024-03-29T18:11:11;11.10;75.20
57242;DHT22;43095;53.302;5.786;2024-03-29T18:13:42;11.10;75.40
57242;DHT22;43095;53.302;5.786;2024-03-29T18:16:09;11.00;75.60
57242;DHT22;43095;53.302;5.786;2024-03-29T18:18:37;10.90;75.80
57242;DHT22;43095;53.302;5.786;2024-03-29T18:21:04;10.80;76.00
57242;DHT22;43095;53.302;5.786;2024-03-29T18:23:31;10.70;76.30
57242;DHT22;43095;53.302;5.786;2024-03-29T18:25:57;10.60;76.50
57242;DHT22;43095;53.302;5.786;2024-03-29T18:28:24;10.50;77.00
57242;DHT22;43095;53.302;5.786;2024-03-29T18:30:53;10.40;77.20
57242;DHT22;43095;53.302;5.786;2024-03-29T18:33:22;10.30;77.60
57242;DHT22;43095;53.302;5.786;2024-03-29T18:35:49;10.20;78.00
57242;DHT22;43095;53.302;5.786;2024-03-29T18:38:15;10.10;78.30
57242;DHT22;43095;53.302;5.786;2024-03-29T18:40:42;10.00;78.70
57242;DHT22;43095;53.302;5.786;2024-03-29T18:43:08;10.00;79.10
57242;DHT22;43095;53.302;5.786;2024-03-29T18:45:38;9.90;79.50
57242;DHT22;43095;53.302;5.786;2024-03-29T18:48:04;9.80;79.90
57242;DHT22;43095;53.302;5.786;2024-03-29T18:50:32;9.80;80.00
57242;DHT22;43095;53.302;5.786;2024-03-29T18:52:58;9.70;80.40
57242;DHT22;43095;53.302;5.786;2024-03-29T18:55:25;9.70;80.70
57242;DHT22;43095;53.302;5.786;2024-03-29T18:57:51;9.60;80.80
57242;DHT22;43095;53.302;5.786;2024-03-29T19:00:17;9.60;81.00
57242;DHT22;43095;53.302;5.786;2024-03-29T19:02:43;9.60;81.40
57242;DHT22;43095;53.302;5.786;2024-03-29T19:05:09;9.60;81.60
57242;DHT22;43095;53.302;5.786;2024-03-29T19:07:36;9.50;81.80
57242;DHT22;43095;53.302;5.786;2024-03-29T19:10:02;9.50;81.80
57242;DHT22;43095;53.302;5.786;2024-03-29T19:12:28;9.50;82.00
57242;DHT22;43095;53.302;5.786;2024-03-29T19:14:55;9.40;82.20
57242;DHT22;43095;53.302;5.786;2024-03-29T19:17:23;9.40;82.50
57242;DHT22;43095;53.302;5.786;2024-03-29T19:19:50;9.40;82.70
57242;DHT22;43095;53.302;5.786;2024-03-29T19:22:19;9.40;82.90
57242;DHT22;43095;53.302;5.786;2024-03-29T19:24:45;9.40;83.00
57242;DHT22;43095;53.302;5.786;2024-03-29T19:27:13;9.40;83.10
57242;DHT22;43095;53.302;5.786;2024-03-29T19:29:40;9.40;83.30
57242;DHT22;43095;53.302;5.786;2024-03-29T19:32:06;9.20;83.50
57242;DHT22;43095;53.302;5.786;2024-03-29T19:34:37;9.20;83.80
57242;DHT22;43095;53.302;5.786;2024-03-29T19:37:03;9.20;84.00
57242;DHT22;43095;53.302;5.786;2024-03-29T19:39:29;9.20;84.20
57242;DHT22;43095;53.302;5.786;2024-03-29T19:41:55;9.20;84.40
57242;DHT22;43095;53.302;5.786;2024-03-29T19:44:22;9.20;84.60
57242;DHT22;43095;53.302;5.786;2024-03-29T19:46:48;9.20;84.70
57242;DHT22;43095;53.302;5.786;2024-03-29T19:49:15;9.20;84.80
57242;DHT22;43095;53.302;5.786;2024-03-29T19:51:45;9.20;85.00
57242;DHT22;43095;53.302;5.786;2024-03-29T19:54:11;9.20;85.00
57242;DHT22;43095;53.302;5.786;2024-03-29T19:56:38;9.20;85.10
57242;DHT22;43095;53.302;5.786;2024-03-29T19:59:05;9.20;85.20
57242;DHT22;43095;53.302;5.786;2024-03-29T20:01:32;9.20;85.30
57242;DHT22;43095;53.302;5.786;2024-03-29T20:03:59;9.10;85.40
57242;DHT22;43095;53.302;5.786;2024-03-29T20:06:25;9.10;85.50